createdAt,value
2022-10-24T00:00:39.135Z,963.65
2022-10-24T00:01:39.068Z,963.65
2022-10-24T00:02:39.088Z,963.67
2022-10-24T00:03:38.963Z,963.65
2022-10-24T00:04:38.930Z,963.67
2022-10-24T00:05:38.875Z,963.67
2022-10-24T00:06:38.876Z,963.66
2022-10-24T00:07:38.808Z,963.62
2022-10-24T00:08:38.773Z,963.57
2022-10-24T00:09:38.706Z,963.67
2022-10-24T00:10:38.665Z,963.72
2022-10-24T00:11:38.619Z,963.74
2022-10-24T00:12:38.609Z,963.76
2022-10-24T00:13:38.544Z,963.81
2022-10-24T00:14:38.556Z,963.75
2022-10-24T00:15:38.484Z,963.75
2022-10-24T00:16:38.409Z,963.74
2022-10-24T00:17:38.373Z,963.73
2022-10-24T00:18:38.319Z,963.68
2022-10-24T00:19:38.283Z,963.63
2022-10-24T00:20:38.335Z,963.62
2022-10-24T00:21:38.204Z,963.50
2022-10-24T00:22:38.151Z,963.49
2022-10-24T00:23:38.098Z,963.59
2022-10-24T00:24:38.078Z,963.61
2022-10-24T00:25:38.017Z,963.63
2022-10-24T00:26:37.984Z,963.66
2022-10-24T00:27:37.986Z,963.65
2022-10-24T00:28:37.888Z,963.61
2022-10-24T00:29:37.843Z,963.56
2022-10-24T00:30:37.801Z,963.57
2022-10-24T00:31:37.772Z,963.63
2022-10-24T00:32:37.721Z,963.66
2022-10-24T00:33:37.695Z,963.67
2022-10-24T00:34:37.675Z,963.75
2022-10-24T00:35:37.602Z,963.69
2022-10-24T00:36:37.546Z,963.66
2022-10-24T00:37:37.505Z,963.66
2022-10-24T00:38:37.462Z,963.65
2022-10-24T00:39:37.411Z,963.59
2022-10-24T00:40:37.417Z,963.57
2022-10-24T00:41:37.329Z,963.56
2022-10-24T00:42:37.287Z,963.57
2022-10-24T00:43:37.276Z,963.54
2022-10-24T00:44:37.203Z,963.54
2022-10-24T00:46:37.145Z,963.38
2022-10-24T00:47:37.093Z,963.29
2022-10-24T00:48:37.033Z,963.15
2022-10-24T00:49:36.988Z,963.15
2022-10-24T00:50:36.944Z,963.27
2022-10-24T00:51:37.014Z,963.36
2022-10-24T00:52:36.858Z,963.56
2022-10-24T00:53:36.830Z,963.60
2022-10-24T00:54:36.776Z,963.80
2022-10-24T00:55:36.731Z,963.80
2022-10-24T00:56:36.687Z,963.82
2022-10-24T00:57:36.678Z,963.75
2022-10-24T00:58:36.732Z,963.85
2022-10-24T00:59:36.577Z,963.89
2022-10-24T01:00:36.611Z,963.88
2022-10-24T01:01:36.540Z,963.90
2022-10-24T01:02:36.436Z,963.96
2022-10-24T01:03:36.384Z,964.03
2022-10-24T01:04:36.418Z,964.01
2022-10-24T01:05:36.309Z,964.00
2022-10-24T01:06:36.270Z,964.07
2022-10-24T01:07:36.230Z,964.04
2022-10-24T01:08:36.174Z,964.11
2022-10-24T01:09:36.124Z,964.06
2022-10-24T01:11:36.059Z,964.06
2022-10-24T01:12:35.996Z,964.01
2022-10-24T01:13:35.952Z,964.07
2022-10-24T01:14:35.926Z,964.09
2022-10-24T01:15:35.867Z,964.07
2022-10-24T01:16:35.875Z,964.07
2022-10-24T01:17:35.784Z,964.03
2022-10-24T01:18:35.748Z,963.99
2022-10-24T01:19:35.702Z,963.98
2022-10-24T01:20:35.653Z,964.01
2022-10-24T01:21:35.605Z,963.89
2022-10-24T01:22:35.606Z,963.78
2022-10-24T01:23:35.528Z,963.79
2022-10-24T01:24:35.476Z,963.71
2022-10-24T01:25:35.436Z,963.67
2022-10-24T01:26:35.398Z,963.60
2022-10-24T01:27:35.357Z,963.55
2022-10-24T01:28:35.516Z,963.41
2022-10-24T01:29:35.266Z,963.31
2022-10-24T01:30:35.224Z,963.37
2022-10-24T01:31:35.181Z,963.60
2022-10-24T01:32:35.158Z,963.63
2022-10-24T01:33:35.089Z,963.72
2022-10-24T01:34:35.049Z,963.64
2022-10-24T01:35:35.005Z,963.56
2022-10-24T01:36:34.957Z,963.52
2022-10-24T01:37:34.940Z,963.52
2022-10-24T01:38:34.875Z,963.45
2022-10-24T01:39:34.832Z,963.45
2022-10-24T01:40:34.784Z,963.57
2022-10-24T01:41:34.746Z,963.68
2022-10-24T01:42:34.702Z,963.68
2022-10-24T01:43:34.679Z,963.67
2022-10-24T01:44:34.616Z,963.58
2022-10-24T01:45:34.568Z,963.55
2022-10-24T01:46:34.525Z,963.54
2022-10-24T01:47:34.486Z,963.56
2022-10-24T01:48:34.435Z,963.50
2022-10-24T01:49:34.409Z,963.52
2022-10-24T01:50:34.356Z,963.57
2022-10-24T01:51:34.308Z,963.61
2022-10-24T01:52:34.269Z,963.64
2022-10-24T01:53:34.229Z,963.71
2022-10-24T01:54:34.176Z,963.71
2022-10-24T01:55:34.158Z,963.66
2022-10-24T01:56:34.090Z,963.63
2022-10-24T01:57:34.049Z,963.54
2022-10-24T01:58:34.004Z,963.51
2022-10-24T01:59:33.964Z,963.46
2022-10-24T02:00:34.032Z,963.51
2022-10-24T02:01:33.956Z,963.40
2022-10-24T02:02:33.840Z,963.39
2022-10-24T02:03:33.791Z,963.42
2022-10-24T02:04:33.749Z,963.45
2022-10-24T02:05:33.701Z,963.44
2022-10-24T02:06:33.662Z,963.23
2022-10-24T02:07:33.624Z,963.10
2022-10-24T02:08:33.573Z,962.88
2022-10-24T02:09:33.531Z,962.85
2022-10-24T02:10:33.493Z,963.20
2022-10-24T02:11:33.458Z,963.30
2022-10-24T02:12:33.401Z,963.39
2022-10-24T02:13:33.355Z,963.47
2022-10-24T02:14:33.318Z,963.50
2022-10-24T02:15:33.270Z,963.45
2022-10-24T02:16:33.255Z,963.47
2022-10-24T02:17:33.189Z,963.44
2022-10-24T02:18:33.147Z,963.40
2022-10-24T02:19:33.096Z,963.36
2022-10-24T02:20:33.054Z,963.35
2022-10-24T02:21:33.008Z,963.32
2022-10-24T02:22:32.992Z,963.27
2022-10-24T02:23:32.925Z,963.24
2022-10-24T02:24:32.884Z,963.17
2022-10-24T02:25:32.846Z,963.32
2022-10-24T02:26:32.794Z,963.22
2022-10-24T02:27:32.752Z,963.26
2022-10-24T02:28:32.719Z,963.31
2022-10-24T02:29:32.661Z,963.28
2022-10-24T02:30:32.627Z,963.30
2022-10-24T02:31:32.582Z,963.29
2022-10-24T02:32:32.533Z,963.30
2022-10-24T02:33:32.491Z,963.29
2022-10-24T02:34:32.497Z,963.27
2022-10-24T02:35:32.402Z,963.31
2022-10-24T02:36:32.377Z,963.29
2022-10-24T02:37:32.341Z,963.36
2022-10-24T02:38:32.272Z,963.40
2022-10-24T02:39:32.252Z,963.42
2022-10-24T02:40:32.185Z,963.48
2022-10-24T02:41:32.142Z,963.52
2022-10-24T02:42:32.112Z,963.52
2022-10-24T02:43:32.057Z,963.58
2022-10-24T02:44:32.013Z,963.61
2022-10-24T02:45:31.982Z,963.63
2022-10-24T02:46:31.927Z,963.69
2022-10-24T02:47:31.884Z,963.69
2022-10-24T02:48:31.844Z,963.70
2022-10-24T02:49:31.807Z,963.74
2022-10-24T02:50:31.750Z,963.80
2022-10-24T02:51:31.709Z,963.84
2022-10-24T02:52:31.664Z,963.85
2022-10-24T02:53:31.621Z,963.79
2022-10-24T02:54:31.579Z,963.77
2022-10-24T02:55:31.556Z,963.74
2022-10-24T02:56:31.490Z,963.75
2022-10-24T02:57:31.450Z,963.69
2022-10-24T02:58:31.402Z,963.79
2022-10-24T02:59:31.368Z,963.75
2022-10-24T03:00:31.359Z,963.76
2022-10-24T03:01:31.364Z,963.77
2022-10-24T03:02:31.230Z,963.79
2022-10-24T03:03:31.191Z,963.73
2022-10-24T03:04:31.146Z,963.74
2022-10-24T03:05:31.102Z,963.64
2022-10-24T03:06:31.057Z,963.63
2022-10-24T03:08:30.981Z,963.57
2022-10-24T03:09:30.930Z,963.54
2022-10-24T03:10:30.882Z,963.50
2022-10-24T03:11:30.842Z,963.51
2022-10-24T03:12:30.993Z,963.39
2022-10-24T03:13:30.753Z,963.38
2022-10-24T03:14:30.709Z,963.30
2022-10-24T03:15:30.666Z,963.26
2022-10-24T03:16:30.637Z,963.27
2022-10-24T03:17:30.579Z,963.22
2022-10-24T03:18:30.566Z,963.27
2022-10-24T03:19:30.492Z,963.27
2022-10-24T03:20:30.471Z,963.15
2022-10-24T03:21:30.405Z,963.15
2022-10-24T03:22:30.735Z,963.05
2022-10-24T03:23:30.319Z,962.95
2022-10-24T03:24:43.470Z,962.99
2022-10-24T03:25:30.252Z,962.96
2022-10-24T03:26:30.187Z,963.05
2022-10-24T03:27:30.145Z,963.00
2022-10-24T03:28:30.093Z,962.97
2022-10-24T03:29:30.056Z,962.99
2022-10-24T03:30:30.025Z,962.96
2022-10-24T03:31:29.967Z,962.97
2022-10-24T03:32:29.922Z,963.09
2022-10-24T03:33:29.881Z,963.11
2022-10-24T03:34:29.840Z,963.15
2022-10-24T03:35:29.793Z,963.22
2022-10-24T03:36:29.766Z,963.15
2022-10-24T03:37:29.713Z,963.12
2022-10-24T03:38:29.661Z,963.10
2022-10-24T03:39:29.647Z,963.09
2022-10-24T03:40:29.578Z,963.18
2022-10-24T03:41:29.533Z,963.21
2022-10-24T03:42:29.488Z,963.29
2022-10-24T03:43:29.456Z,963.29
2022-10-24T03:44:29.405Z,963.31
2022-10-24T03:45:29.384Z,963.37
2022-10-24T03:46:29.316Z,963.35
2022-10-24T03:47:29.270Z,963.27
2022-10-24T03:48:29.229Z,963.34
2022-10-24T03:49:29.192Z,963.34
2022-10-24T03:50:29.141Z,963.40
2022-10-24T03:51:29.114Z,963.41
2022-10-24T03:52:29.053Z,963.41
2022-10-24T03:53:29.037Z,963.45
2022-10-24T03:54:28.969Z,963.39
2022-10-24T03:55:28.926Z,963.46
2022-10-24T03:56:28.887Z,963.46
2022-10-24T03:57:28.876Z,963.44
2022-10-24T03:58:28.799Z,963.48
2022-10-24T03:59:28.757Z,963.40
2022-10-24T04:00:28.712Z,963.27
2022-10-24T04:01:28.781Z,963.24
2022-10-24T04:02:28.619Z,963.22
2022-10-24T04:03:28.595Z,963.24
2022-10-24T04:04:28.551Z,963.20
2022-10-24T04:05:28.532Z,963.24
2022-10-24T04:06:30.295Z,963.19
2022-10-24T04:07:28.405Z,963.15
2022-10-24T04:08:28.360Z,963.20
2022-10-24T04:09:28.346Z,963.11
2022-10-24T04:10:28.277Z,963.06
2022-10-24T04:11:28.234Z,963.17
2022-10-24T04:12:28.187Z,963.03
2022-10-24T04:13:28.144Z,963.02
2022-10-24T04:14:28.103Z,963.02
2022-10-24T04:15:28.084Z,962.87
2022-10-24T04:16:28.016Z,962.84
2022-10-24T04:17:27.973Z,962.71
2022-10-24T04:18:27.926Z,962.63
2022-10-24T04:19:27.887Z,962.65
2022-10-24T04:20:27.841Z,962.80
2022-10-24T04:21:27.810Z,962.81
2022-10-24T04:22:27.750Z,962.80
2022-10-24T04:23:27.714Z,962.86
2022-10-24T04:24:27.780Z,962.88
2022-10-24T04:25:27.622Z,962.75
2022-10-24T04:26:27.577Z,962.78
2022-10-24T04:27:27.541Z,962.73
2022-10-24T04:28:27.489Z,962.67
2022-10-24T04:29:27.444Z,962.75
2022-10-24T04:30:27.426Z,962.78
2022-10-24T04:31:27.362Z,962.75
2022-10-24T04:32:27.317Z,962.62
2022-10-24T04:33:27.276Z,962.57
2022-10-24T04:34:27.233Z,962.58
2022-10-24T04:35:27.189Z,962.58
2022-10-24T04:36:27.322Z,962.61
2022-10-24T04:37:27.117Z,962.63
2022-10-24T04:38:31.116Z,962.76
2022-10-24T04:39:27.026Z,962.70
2022-10-24T04:40:26.975Z,962.66
2022-10-24T04:41:26.934Z,962.65
2022-10-24T04:42:27.009Z,962.66
2022-10-24T04:43:26.849Z,962.56
2022-10-24T04:44:26.837Z,962.57
2022-10-24T04:45:26.771Z,962.59
2022-10-24T04:46:26.720Z,962.56
2022-10-24T04:47:26.676Z,962.64
2022-10-24T04:48:26.651Z,962.55
2022-10-24T04:49:26.585Z,962.57
2022-10-24T04:50:26.543Z,962.60
2022-10-24T04:51:26.501Z,962.54
2022-10-24T04:52:26.457Z,962.51
2022-10-24T04:53:26.412Z,962.57
2022-10-24T04:54:26.396Z,962.58
2022-10-24T04:55:26.435Z,962.55
2022-10-24T04:56:26.284Z,962.60
2022-10-24T04:57:26.242Z,962.56
2022-10-24T04:58:26.198Z,962.58
2022-10-24T04:59:26.159Z,962.63
2022-10-24T05:00:26.221Z,962.69
2022-10-24T05:01:26.120Z,962.76
2022-10-24T05:02:26.027Z,962.73
2022-10-24T05:03:25.983Z,962.71
2022-10-24T05:04:25.941Z,962.72
2022-10-24T05:05:25.904Z,962.69
2022-10-24T05:06:25.874Z,962.69
2022-10-24T05:07:25.811Z,962.76
2022-10-24T05:08:25.769Z,962.74
2022-10-24T05:09:25.724Z,962.70
2022-10-24T05:10:25.678Z,962.68
2022-10-24T05:11:25.641Z,962.71
2022-10-24T05:12:25.613Z,962.77
2022-10-24T05:13:25.735Z,962.77
2022-10-24T05:14:25.507Z,962.79
2022-10-24T05:15:25.471Z,962.76
2022-10-24T05:16:25.425Z,962.79
2022-10-24T05:17:25.384Z,962.80
2022-10-24T05:18:25.335Z,962.87
2022-10-24T05:19:25.320Z,962.83
2022-10-24T05:20:25.253Z,962.81
2022-10-24T05:21:25.209Z,962.85
2022-10-24T05:22:25.167Z,962.87
2022-10-24T05:23:25.125Z,962.85
2022-10-24T05:24:25.078Z,962.83
2022-10-24T05:25:25.064Z,962.88
2022-10-24T05:26:24.991Z,962.91
2022-10-24T05:27:24.951Z,962.92
2022-10-24T05:28:24.905Z,962.89
2022-10-24T05:29:24.862Z,962.84
2022-10-24T05:30:24.817Z,962.90
2022-10-24T05:31:24.835Z,962.83
2022-10-24T05:32:24.724Z,962.96
2022-10-24T05:33:24.688Z,962.99
2022-10-24T05:34:24.647Z,963.08
2022-10-24T05:35:24.608Z,963.12
2022-10-24T05:36:24.559Z,963.18
2022-10-24T05:37:24.556Z,963.20
2022-10-24T05:38:24.470Z,963.15
2022-10-24T05:39:24.429Z,963.01
2022-10-24T05:40:24.382Z,962.99
2022-10-24T05:41:24.405Z,962.99
2022-10-24T05:42:24.295Z,962.92
2022-10-24T05:43:24.274Z,962.85
2022-10-24T05:44:24.213Z,962.81
2022-10-24T05:45:24.170Z,962.84
2022-10-24T05:46:24.129Z,962.85
2022-10-24T05:47:25.753Z,962.81
2022-10-24T05:48:24.058Z,962.74
2022-10-24T05:49:23.997Z,962.75
2022-10-24T05:50:23.960Z,962.75
2022-10-24T05:51:23.909Z,962.73
2022-10-24T05:52:23.863Z,962.75
2022-10-24T05:53:23.826Z,962.76
2022-10-24T05:54:23.799Z,962.83
2022-10-24T05:55:23.738Z,962.85
2022-10-24T05:56:23.687Z,962.86
2022-10-24T05:57:23.653Z,962.85
2022-10-24T05:58:23.607Z,962.87
2022-10-24T05:59:23.562Z,962.90
2022-10-24T06:03:46.543Z,962.72
2022-10-24T06:04:46.484Z,962.66
2022-10-24T06:05:46.439Z,962.63
2022-10-24T06:06:46.394Z,962.71
2022-10-24T06:07:46.545Z,962.71
2022-10-24T06:08:46.309Z,962.65
2022-10-24T06:09:46.284Z,962.63
2022-10-24T06:10:46.218Z,962.67
2022-10-24T06:11:46.172Z,962.71
2022-10-24T06:12:46.372Z,962.82
2022-10-24T06:13:46.091Z,962.84
2022-10-24T06:14:46.042Z,962.88
2022-10-24T06:15:46.034Z,962.89
2022-10-24T06:16:45.956Z,962.83
2022-10-24T06:17:45.916Z,962.84
2022-10-24T06:18:45.874Z,962.84
2022-10-24T06:19:45.899Z,962.85
2022-10-24T06:20:45.778Z,962.91
2022-10-24T06:21:45.754Z,962.91
2022-10-24T06:22:45.977Z,962.86
2022-10-24T06:23:45.651Z,962.85
2022-10-24T06:24:45.606Z,962.86
2022-10-24T06:25:45.566Z,962.93
2022-10-24T06:26:45.521Z,962.99
2022-10-24T06:27:45.492Z,962.96
2022-10-24T06:28:45.439Z,963.01
2022-10-24T06:29:45.390Z,962.98
2022-10-24T06:30:45.352Z,962.97
2022-10-24T06:31:45.302Z,962.94
2022-10-24T06:32:45.260Z,962.91
2022-10-24T06:33:45.230Z,962.95
2022-10-24T06:34:45.173Z,963.01
2022-10-24T06:35:45.138Z,963.06
2022-10-24T06:36:45.101Z,963.05
2022-10-24T06:37:47.355Z,963.02
2022-10-24T06:38:45.000Z,962.99
2022-10-24T06:39:44.977Z,963.02
2022-10-24T06:40:44.915Z,962.92
2022-10-24T06:41:44.880Z,962.79
2022-10-24T06:42:44.824Z,962.76
2022-10-24T06:43:44.785Z,962.82
2022-10-24T06:44:44.738Z,962.80
2022-10-24T06:45:44.716Z,962.79
2022-10-24T06:46:44.656Z,962.70
2022-10-24T06:47:44.867Z,962.75
2022-10-24T06:48:44.567Z,962.79
2022-10-24T06:49:44.526Z,962.75
2022-10-24T06:50:44.530Z,962.84
2022-10-24T06:51:44.439Z,962.91
2022-10-24T06:52:44.394Z,962.95
2022-10-24T06:53:44.355Z,963.00
2022-10-24T06:54:44.308Z,962.96
2022-10-24T06:55:44.265Z,962.98
2022-10-24T06:56:44.236Z,962.90
2022-10-24T06:57:44.471Z,962.87
2022-10-24T06:58:44.135Z,962.88
2022-10-24T06:59:44.790Z,962.84
2022-10-24T07:00:44.087Z,962.73
2022-10-24T07:01:44.154Z,962.73
2022-10-24T07:02:44.158Z,962.71
2022-10-24T07:03:43.941Z,962.70
2022-10-24T07:04:43.876Z,962.72
2022-10-24T07:05:43.835Z,962.74
2022-10-24T07:06:43.791Z,962.67
2022-10-24T07:07:44.230Z,962.57
2022-10-24T07:08:43.704Z,962.45
2022-10-24T07:09:43.675Z,962.38
2022-10-24T07:10:43.619Z,962.31
2022-10-24T07:11:43.579Z,962.35
2022-10-24T07:12:43.958Z,962.42
2022-10-24T07:13:43.502Z,962.55
2022-10-24T07:14:43.452Z,962.69
2022-10-24T07:15:43.409Z,962.86
2022-10-24T07:16:43.368Z,963.01
2022-10-24T07:17:43.320Z,962.98
2022-10-24T07:18:43.306Z,962.96
2022-10-24T07:19:43.234Z,962.93
2022-10-24T07:20:43.210Z,962.99
2022-10-24T07:21:43.151Z,963.11
2022-10-24T07:22:43.111Z,963.19
2022-10-24T07:23:43.064Z,963.20
2022-10-24T07:24:43.036Z,963.19
2022-10-24T07:25:42.977Z,963.22
2022-10-24T07:26:42.938Z,963.29
2022-10-24T07:27:42.895Z,963.32
2022-10-24T07:28:42.854Z,963.32
2022-10-24T07:29:42.811Z,963.33
2022-10-24T07:30:42.790Z,963.29
2022-10-24T07:31:42.727Z,963.39
2022-10-24T07:32:42.879Z,963.50
2022-10-24T07:33:42.639Z,963.55
2022-10-24T07:34:42.605Z,963.53
2022-10-24T07:35:42.557Z,963.58
2022-10-24T07:36:43.760Z,963.58
2022-10-24T07:37:42.700Z,963.61
2022-10-24T07:38:42.432Z,963.70
2022-10-24T07:39:42.395Z,963.77
2022-10-24T07:40:42.345Z,963.83
2022-10-24T07:41:42.303Z,963.85
2022-10-24T07:42:42.284Z,963.96
2022-10-24T07:43:42.220Z,963.98
2022-10-24T07:44:42.180Z,964.05
2022-10-24T07:45:42.173Z,964.16
2022-10-24T07:46:42.094Z,964.24
2022-10-24T07:47:42.321Z,964.24
2022-10-24T07:48:42.024Z,964.17
2022-10-24T07:49:41.967Z,964.06
2022-10-24T07:50:41.923Z,963.95
2022-10-24T07:51:41.882Z,963.96
2022-10-24T07:52:41.841Z,963.92
2022-10-24T07:53:41.800Z,963.92
2022-10-24T07:54:41.786Z,963.96
2022-10-24T07:55:41.715Z,963.96
2022-10-24T07:56:41.674Z,964.01
2022-10-24T07:57:41.679Z,964.01
2022-10-24T07:58:41.596Z,963.94
2022-10-24T07:59:42.504Z,963.94
2022-10-24T08:00:45.004Z,964.05
2022-10-24T08:01:41.544Z,964.16
2022-10-24T08:02:41.496Z,964.28
2022-10-24T08:03:41.386Z,964.44
2022-10-24T08:04:41.339Z,964.49
2022-10-24T08:05:41.305Z,964.44
2022-10-24T08:06:41.264Z,964.32
2022-10-24T08:07:41.223Z,964.22
2022-10-24T08:08:41.468Z,964.22
2022-10-24T08:09:41.126Z,964.25
2022-10-24T08:10:41.099Z,964.27
2022-10-24T08:11:41.038Z,964.25
2022-10-24T08:12:41.000Z,964.20
2022-10-24T08:13:40.968Z,964.14
2022-10-24T08:14:40.914Z,964.03
2022-10-24T08:15:40.874Z,964.01
2022-10-24T08:16:40.829Z,964.03
2022-10-24T08:17:40.785Z,964.17
2022-10-24T08:18:40.748Z,964.21
2022-10-24T08:19:42.421Z,964.19
2022-10-24T08:20:40.658Z,964.17
2022-10-24T08:21:40.617Z,964.22
2022-10-24T08:22:40.575Z,964.25
2022-10-24T08:23:40.535Z,964.31
2022-10-24T08:24:40.488Z,964.34
2022-10-24T08:25:40.464Z,964.37
2022-10-24T08:26:40.407Z,964.35
2022-10-24T08:27:40.381Z,964.36
2022-10-24T08:28:40.322Z,964.36
2022-10-24T08:29:40.279Z,964.36
2022-10-24T08:30:40.239Z,964.35
2022-10-24T08:31:40.223Z,964.29
2022-10-24T08:32:40.151Z,964.31
2022-10-24T08:33:40.110Z,964.31
2022-10-24T08:34:40.072Z,964.28
2022-10-24T08:35:40.028Z,964.23
2022-10-24T08:36:39.984Z,964.20
2022-10-24T08:37:39.967Z,964.18
2022-10-24T08:38:39.901Z,964.09
2022-10-24T08:39:39.859Z,964.12
2022-10-24T08:40:39.821Z,964.14
2022-10-24T08:41:39.777Z,964.26
2022-10-24T08:42:39.730Z,964.31
2022-10-24T08:43:39.708Z,964.41
2022-10-24T08:44:39.669Z,964.36
2022-10-24T08:45:39.606Z,964.37
2022-10-24T08:46:39.562Z,964.40
2022-10-24T08:48:39.486Z,964.40
2022-10-24T08:49:39.441Z,964.49
2022-10-24T08:50:39.738Z,964.52
2022-10-24T08:51:39.360Z,964.54
2022-10-24T08:52:39.314Z,964.59
2022-10-24T08:53:39.281Z,964.66
2022-10-24T08:54:39.250Z,964.58
2022-10-24T08:55:54.390Z,964.47
2022-10-24T08:56:39.184Z,964.38
2022-10-24T08:57:39.112Z,964.30
2022-10-24T08:58:39.062Z,964.13
2022-10-24T08:59:39.028Z,964.07
2022-10-24T09:00:38.982Z,964.01
2022-10-24T09:01:39.086Z,963.96
2022-10-24T09:02:39.093Z,963.92
2022-10-24T09:04:38.816Z,964.07
2022-10-24T09:05:38.770Z,964.24
2022-10-24T09:06:38.729Z,964.43
2022-10-24T09:07:38.684Z,964.44
2022-10-24T09:08:38.663Z,964.37
2022-10-24T09:09:38.604Z,964.23
2022-10-24T09:10:38.563Z,964.16
2022-10-24T09:11:38.521Z,964.16
2022-10-24T09:12:38.479Z,964.15
2022-10-24T09:13:38.444Z,964.09
2022-10-24T09:14:38.405Z,964.12
2022-10-24T09:15:38.351Z,964.13
2022-10-24T09:16:38.307Z,964.24
2022-10-24T09:17:38.265Z,964.32
2022-10-24T09:18:38.222Z,964.31
2022-10-24T09:19:38.181Z,964.32
2022-10-24T09:20:38.158Z,964.32
2022-10-24T09:21:38.099Z,964.32
2022-10-24T09:22:39.529Z,964.37
2022-10-24T09:23:38.012Z,964.42
2022-10-24T09:24:37.972Z,964.44
2022-10-24T09:25:37.931Z,964.45
2022-10-24T09:26:37.910Z,964.52
2022-10-24T09:27:37.847Z,964.53
2022-10-24T09:28:37.806Z,964.56
2022-10-24T09:29:37.765Z,964.61
2022-10-24T09:30:37.721Z,964.56
2022-10-24T09:31:37.679Z,964.58
2022-10-24T09:32:37.651Z,964.65
2022-10-24T09:33:37.600Z,964.75
2022-10-24T09:34:37.550Z,964.90
2022-10-24T09:35:37.512Z,965.01
2022-10-24T09:36:37.468Z,965.14
2022-10-24T09:37:42.497Z,965.27
2022-10-24T09:38:37.407Z,965.35
2022-10-24T09:39:37.341Z,965.38
2022-10-24T09:40:37.300Z,965.43
2022-10-24T09:41:37.255Z,965.31
2022-10-24T09:42:37.212Z,965.26
2022-10-24T09:43:37.172Z,965.28
2022-10-24T09:44:37.146Z,965.35
2022-10-24T09:45:37.088Z,965.53
2022-10-24T09:46:37.042Z,965.60
2022-10-24T09:47:37.005Z,965.65
2022-10-24T09:48:36.961Z,965.67
2022-10-24T09:49:36.918Z,965.77
2022-10-24T09:50:36.894Z,965.88
2022-10-24T09:51:36.832Z,965.91
2022-10-24T09:52:36.790Z,965.81
2022-10-24T09:53:36.747Z,965.80
2022-10-24T09:54:36.704Z,965.98
2022-10-24T09:55:36.658Z,965.86
2022-10-24T09:56:36.644Z,965.91
2022-10-24T09:57:36.575Z,965.87
2022-10-24T09:58:36.559Z,965.89
2022-10-24T09:59:36.489Z,965.76
2022-10-24T10:00:36.449Z,965.85
2022-10-24T10:01:36.486Z,965.89
2022-10-24T10:02:36.370Z,965.94
2022-10-24T10:03:36.316Z,965.96
2022-10-24T10:04:36.275Z,966.07
2022-10-24T10:05:36.230Z,966.08
2022-10-24T10:06:36.183Z,966.08
2022-10-24T10:07:36.144Z,966.00
2022-10-24T10:08:36.121Z,966.00
2022-10-24T10:09:36.056Z,966.03
2022-10-24T10:10:36.010Z,965.94
2022-10-24T10:11:40.589Z,965.92
2022-10-24T10:12:35.922Z,965.83
2022-10-24T10:13:35.879Z,965.74
2022-10-24T10:14:35.853Z,965.72
2022-10-24T10:15:35.798Z,965.68
2022-10-24T10:16:35.752Z,965.65
2022-10-24T10:17:35.712Z,965.66
2022-10-24T10:18:35.672Z,965.66
2022-10-24T10:19:35.623Z,965.61
2022-10-24T10:20:35.591Z,965.55
2022-10-24T10:21:35.535Z,965.53
2022-10-24T10:22:35.491Z,965.55
2022-10-24T10:23:35.449Z,965.58
2022-10-24T10:24:35.402Z,965.55
2022-10-24T10:25:35.376Z,965.59
2022-10-24T10:26:35.314Z,965.69
2022-10-24T10:27:35.272Z,965.70
2022-10-24T10:28:35.233Z,965.79
2022-10-24T10:29:35.188Z,965.90
2022-10-24T10:30:35.142Z,965.96
2022-10-24T10:31:35.120Z,965.92
2022-10-24T10:32:35.060Z,965.89
2022-10-24T10:34:34.972Z,965.54
2022-10-24T10:35:34.932Z,965.52
2022-10-24T10:36:34.886Z,965.52
2022-10-24T10:37:34.856Z,965.43
2022-10-24T10:38:34.796Z,965.38
2022-10-24T10:39:34.759Z,965.32
2022-10-24T10:40:34.711Z,965.38
2022-10-24T10:41:34.666Z,965.26
2022-10-24T10:42:34.631Z,965.31
2022-10-24T10:43:34.593Z,965.27
2022-10-24T10:44:34.540Z,965.29
2022-10-24T10:45:34.497Z,965.30
2022-10-24T10:46:34.466Z,965.38
2022-10-24T10:47:34.409Z,965.42
2022-10-24T10:48:34.402Z,965.49
2022-10-24T10:49:34.325Z,965.53
2022-10-24T10:50:34.281Z,965.54
2022-10-24T10:51:34.238Z,965.58
2022-10-24T10:52:34.193Z,965.68
2022-10-24T10:53:34.149Z,965.80
2022-10-24T10:54:34.118Z,965.82
2022-10-24T10:55:34.071Z,965.82
2022-10-24T10:56:34.029Z,965.85
2022-10-24T10:57:33.978Z,965.87
2022-10-24T10:58:33.998Z,965.85
2022-10-24T10:59:33.921Z,965.82
2022-10-24T11:00:33.849Z,965.72
2022-10-24T11:01:33.933Z,965.64
2022-10-24T11:02:33.894Z,965.55
2022-10-24T11:03:33.722Z,965.47
2022-10-24T11:04:33.680Z,965.46
2022-10-24T11:05:33.657Z,965.38
2022-10-24T11:06:33.593Z,965.31
2022-10-24T11:07:33.554Z,965.26
2022-10-24T11:08:33.504Z,965.21
2022-10-24T11:09:33.467Z,965.19
2022-10-24T11:10:33.416Z,965.31
2022-10-24T11:11:33.387Z,965.41
2022-10-24T11:12:33.334Z,965.35
2022-10-24T11:13:34.232Z,965.21
2022-10-24T11:14:33.246Z,965.12
2022-10-24T11:15:33.205Z,965.00
2022-10-24T11:16:33.187Z,964.92
2022-10-24T11:17:33.119Z,964.93
2022-10-24T11:18:35.385Z,964.90
2022-10-24T11:19:33.028Z,964.84
2022-10-24T11:20:32.985Z,964.78
2022-10-24T11:21:32.950Z,964.88
2022-10-24T11:22:32.933Z,965.00
2022-10-24T11:23:32.891Z,964.98
2022-10-24T11:24:32.815Z,964.89
2022-10-24T11:25:32.772Z,964.86
2022-10-24T11:26:32.737Z,964.78
2022-10-24T11:27:32.687Z,964.72
2022-10-24T11:28:32.655Z,964.67
2022-10-24T11:29:32.600Z,964.60
2022-10-24T11:30:32.554Z,964.66
2022-10-24T11:31:32.521Z,964.68
2022-10-24T11:32:32.473Z,964.46
2022-10-24T11:33:32.426Z,964.23
2022-10-24T11:34:32.412Z,964.01
2022-10-24T11:35:32.371Z,964.20
2022-10-24T11:36:32.306Z,964.62
2022-10-24T11:37:32.257Z,964.88
2022-10-24T11:38:32.234Z,964.88
2022-10-24T11:39:32.166Z,964.87
2022-10-24T11:40:32.138Z,964.92
2022-10-24T11:41:32.080Z,964.91
2022-10-24T11:42:32.035Z,964.91
2022-10-24T11:43:32.014Z,964.94
2022-10-24T11:44:31.953Z,964.99
2022-10-24T11:45:31.910Z,965.04
2022-10-24T11:46:31.872Z,965.06
2022-10-24T11:47:31.822Z,965.08
2022-10-24T11:48:31.796Z,965.07
2022-10-24T11:49:31.737Z,965.04
2022-10-24T11:50:31.693Z,964.99
2022-10-24T11:51:31.648Z,965.00
2022-10-24T11:52:31.607Z,965.02
2022-10-24T11:53:31.571Z,965.06
2022-10-24T11:54:31.538Z,965.10
2022-10-24T11:55:31.487Z,965.07
2022-10-24T11:56:31.435Z,965.04
2022-10-24T11:57:31.398Z,965.08
2022-10-24T11:58:31.349Z,965.04
2022-10-24T11:59:31.312Z,965.05
2022-10-24T12:00:31.276Z,965.05
2022-10-24T12:01:31.306Z,965.05
2022-10-24T12:02:31.207Z,965.08
2022-10-24T12:03:31.142Z,965.08
2022-10-24T12:04:31.276Z,965.07
2022-10-24T12:05:31.101Z,965.09
2022-10-24T12:06:31.004Z,965.01
2022-10-24T12:07:30.966Z,965.02
2022-10-24T12:08:30.920Z,965.04
2022-10-24T12:09:33.596Z,965.08
2022-10-24T12:10:30.847Z,965.02
2022-10-24T12:11:30.794Z,964.93
2022-10-24T12:12:30.747Z,964.84
2022-10-24T12:13:31.448Z,964.79
2022-10-24T12:14:30.660Z,964.75
2022-10-24T12:15:32.166Z,964.77
2022-10-24T12:16:30.604Z,964.74
2022-10-24T12:17:30.533Z,964.71
2022-10-24T12:18:30.487Z,964.70
2022-10-24T12:19:30.446Z,964.73
2022-10-24T12:20:30.406Z,964.74
2022-10-24T12:21:30.357Z,964.67
2022-10-24T12:22:30.328Z,964.64
2022-10-24T12:23:30.289Z,964.63
2022-10-24T12:24:30.265Z,964.67
2022-10-24T12:25:30.184Z,964.68
2022-10-24T12:26:30.142Z,964.69
2022-10-24T12:27:30.098Z,964.69
2022-10-24T12:28:30.074Z,964.65
2022-10-24T12:29:30.013Z,964.69
2022-10-24T12:30:29.998Z,964.74
2022-10-24T12:31:29.930Z,964.76
2022-10-24T12:32:29.886Z,964.77
2022-10-24T12:33:29.837Z,964.80
2022-10-24T12:34:29.796Z,964.78
2022-10-24T12:35:31.116Z,964.79
2022-10-24T12:36:29.723Z,964.77
2022-10-24T12:37:29.671Z,964.78